ポルト・ベーリョ空港の過去48時間の天気

ポルト・ベーリョ空港 (Porto Velho Aeroporto )

現在時刻: 7/13 20:10 -04 (7/14 00:10 UTC) 以下の時間は現地時間です。

過去48時間のMETAR気象情報
時間 風向 風速(m/s) 視程 気温(℃) 湿度(%) 気圧(hPa) 天気現象
13 20:00 1 10km以上 26 89 1012
13 19:00 静穏 0 10km以上 26 89 1011
13 18:00 北北西 1 10km以上 27 79 1011
13 17:00 東北東 2 10km以上 31 59 1011 周辺でしゅう雨
13 16:00 2 10km以上 32 56 1011 周辺でしゅう雨
13 15:00 北東 2 10km以上 33 49 1012
13 14:00 6 10km以上 30 66 1013
13 13:00 2 10km以上 32 56 1013
13 12:00 2 10km以上 31 62 1014
13 11:00 西北西 1 10km以上 31 66 1015
13 10:00 南西 2 10km以上 29 74 1015
13 09:00 1 10km以上 27 84 1015
13 08:00 1 10km以上 25 94 1014
13 07:00 静穏 0 8000m 23 94 1013
13 06:00 静穏 0 10km以上 23 94 1012
13 05:00 静穏 0 10km以上 23 94 1012
13 04:00 静穏 0 10km以上 23 94 1012
13 03:00 静穏 0 10km以上 23 94 1012
13 02:00 静穏 0 10km以上 23 94 1012
13 01:00 静穏 0 10km以上 23 94 1013
13 00:00 西 1 10km以上 24 94 1013
12 23:00 静穏 0 10km以上 24 94 1013
12 22:00 北北西 1 10km以上 24 94 1013
12 21:00 1 10km以上 25 94 1012
12 20:00 北北西 1 10km以上 25 94 1011
12 19:00 北北西 1 10km以上 25 94 1011
12 18:00 北北西 1 10km以上 27 84 1011
12 17:00 西 1 10km以上 30 62 1010
12 16:00 北北西 2 10km以上 31 59 1010
12 15:00 2 10km以上 31 59 1011
12 14:00 2 10km以上 29 66 1012
12 13:00 西 2 10km以上 28 74 1013
12 12:00 西 2 10km以上 26 79 1014
12 11:00 西南西 1 8000m 24 89 1014
12 10:00 西南西 1 5000m 23 94 1015 もや
12 09:00 南西 1 3000m 22 94 1014 もや
12 08:00 西南西 2 1600m 21 94 1014 もや
12 07:00 西南西 1 800m 21 94 1013
12 06:17 1 800m 21 94 1012
12 06:00 静穏 0 1800m 22 94 1012 もや
12 05:00 南西 1 5000m 22 94 1012 もや
12 04:00 西 1 8000m 22 94 1012
12 03:00 西南西 1 10km以上 22 94 1012
12 02:37 南西 1 10km以上 22 94 1012
12 02:00 静穏 0 10km以上 22 94 1012
12 01:00 静穏 0 10km以上 22 94 1012
12 00:00 西 1 10km以上 23 94 1013
11 23:00 南西 1 10km以上 23 94 1013
11 22:00 西北西 1 10km以上 23 94 1012
11 21:00 西 1 10km以上 24 94 1012
SBPV 140000Z 17002KT 9999 FEW040 26/24 Q1012
SBPV 132300Z 00000KT 9999 FEW040 FEW045TCU 26/24 Q1011
SBPV 132200Z 33002KT 9999 FEW040 FEW045TCU 27/23 Q1011
SBPV 132100Z 06003KT 9999 VCSH FEW040 FEW045TCU BKN100 31/22 Q1011
SBPV 132000Z 09004KT 9999 VCSH FEW040 FEW045TCU 32/22 Q1011
SBPV 131900Z 05004KT 9999 SCT040 FEW045TCU 33/21 Q1012
SBPV 131800Z 08011KT 9999 SCT040 FEW045TCU 30/23 Q1013
SBPV 131700Z 35003KT 9999 SCT040 32/22 Q1013
SBPV 131600Z 10003KT 9999 SCT035 31/23 Q1014
SBPV 131500Z 30002KT 9999 FEW025 31/24 Q1015
SBPV 131400Z 23003KT CAVOK 29/24 Q1015
SBPV 131300Z 18002KT CAVOK 27/24 Q1015
SBPV 131200Z 19001KT CAVOK 25/24 Q1014
SBPV 131100Z 00000KT 8000 NSC 23/22 Q1013
SBPV 131000Z 00000KT CAVOK 23/22 Q1012
SBPV 130900Z 00000KT CAVOK 23/22 Q1012
SBPV 130800Z 00000KT CAVOK 23/22 Q1012
SBPV 130700Z 00000KT CAVOK 23/22 Q1012
SBPV 130600Z 00000KT CAVOK 23/22 Q1012
SBPV 130500Z 00000KT CAVOK 23/22 Q1013
SBPV 130400Z 27001KT CAVOK 24/23 Q1013
SBPV 130300Z 00000KT CAVOK 24/23 Q1013
SBPV 130200Z 34002KT CAVOK 24/23 Q1013
SBPV 130100Z 36001KT CAVOK 25/24 Q1012
SBPV 130000Z 33002KT CAVOK 25/24 Q1011
SBPV 122300Z 34002KT 9999 FEW030 25/24 Q1011
SBPV 122200Z 33002KT 9999 FEW030 27/24 Q1011
SBPV 122100Z 27001KT 9999 FEW030 30/22 Q1010
SBPV 122000Z 34003KT 9999 FEW030 31/22 Q1010
SBPV 121900Z 36004KT 9999 FEW025 31/22 Q1011
SBPV 121800Z 35004KT 9999 FEW020 29/22 Q1012
SBPV 121700Z 27003KT 9999 FEW015 28/23 Q1013
SBPV 121600Z 28003KT 9999 SCT009 26/22 Q1014
SBPV 121500Z 25001KT 8000 BKN007 24/22 Q1014
SBPV 121400Z 25002KT 5000 BR BKN004 23/22 Q1015
SBPV 121300Z 23002KT 3000 BR BKN002 22/21 Q1014
SBPV 121200Z 25003KT 1600 BR BKN002 21/20 Q1014
SBPV 121100Z 25001KT 0800 R19/P2000 FG VV001 21/20 Q1013
SBPV 121017Z 19001KT 0800 R19/P2000 FG VV001 21/20 Q1012
SBPV 121000Z 00000KT 1800 R19/P2000 BR VV001 22/21 Q1012
SBPV 120900Z 22002KT 5000 BR OVC002 22/21 Q1012
SBPV 120800Z 28002KT 8000 OVC002 22/21 Q1012
SBPV 120700Z 25001KT 9999 BKN003 22/21 Q1012
SBPV 120637Z 23001KT 9999 BKN004 22/21 Q1012
SBPV 120600Z 00000KT 9999 FEW005 22/21 Q1012
SBPV 120500Z 00000KT 9999 FEW015 22/21 Q1012
SBPV 120400Z 27001KT 9999 FEW015 23/22 Q1013
SBPV 120300Z 22001KT 9999 FEW015 23/22 Q1013
SBPV 120200Z 30001KT 9999 FEW015 23/22 Q1012
SBPV 120100Z 26001KT 9999 FEW020 24/23 Q1012